sensor_id;sensor_type;location;lat;lon;timestamp;P1;durP1;ratioP1;P2;durP2;ratioP2
4144;SDS011;2086;51.050;6.982;2022-08-01T00:02:00;3.23;;;1.30;;
4144;SDS011;2086;51.050;6.982;2022-08-01T00:04:25;1.30;;;1.20;;
4144;SDS011;2086;51.050;6.982;2022-08-01T00:06:50;1.37;;;1.27;;
4144;SDS011;2086;51.050;6.982;2022-08-01T00:09:16;1.00;;;0.93;;
4144;SDS011;2086;51.050;6.982;2022-08-01T00:11:41;1.67;;;1.57;;
4144;SDS011;2086;51.050;6.982;2022-08-01T00:14:07;1.80;;;1.70;;
4144;SDS011;2086;51.050;6.982;2022-08-01T00:16:34;5.60;;;1.77;;
4144;SDS011;2086;51.050;6.982;2022-08-01T00:18:59;0.97;;;0.97;;
4144;SDS011;2086;51.050;6.982;2022-08-01T00:21:25;2.40;;;2.30;;
4144;SDS011;2086;51.050;6.982;2022-08-01T00:23:50;1.50;;;1.40;;
4144;SDS011;2086;51.050;6.982;2022-08-01T00:26:15;1.00;;;1.00;;
4144;SDS011;2086;51.050;6.982;2022-08-01T00:28:40;2.23;;;1.73;;
4144;SDS011;2086;51.050;6.982;2022-08-01T00:31:06;1.50;;;1.40;;
4144;SDS011;2086;51.050;6.982;2022-08-01T00:33:31;1.40;;;1.40;;
4144;SDS011;2086;51.050;6.982;2022-08-01T00:35:56;1.73;;;1.60;;
4144;SDS011;2086;51.050;6.982;2022-08-01T00:38:22;5.03;;;1.03;;
4144;SDS011;2086;51.050;6.982;2022-08-01T00:40:47;1.17;;;1.07;;
4144;SDS011;2086;51.050;6.982;2022-08-01T00:43:13;1.40;;;1.30;;
4144;SDS011;2086;51.050;6.982;2022-08-01T00:45:38;1.10;;;1.00;;
4144;SDS011;2086;51.050;6.982;2022-08-01T00:48:03;1.43;;;1.33;;
4144;SDS011;2086;51.050;6.982;2022-08-01T00:50:29;1.30;;;1.20;;
4144;SDS011;2086;51.050;6.982;2022-08-01T00:52:54;6.10;;;1.17;;
4144;SDS011;2086;51.050;6.982;2022-08-01T00:55:20;1.67;;;1.57;;
4144;SDS011;2086;51.050;6.982;2022-08-01T00:57:46;0.80;;;0.80;;
4144;SDS011;2086;51.050;6.982;2022-08-01T01:00:12;3.30;;;1.47;;
4144;SDS011;2086;51.050;6.982;2022-08-01T01:02:37;1.13;;;1.03;;
4144;SDS011;2086;51.050;6.982;2022-08-01T01:05:02;0.93;;;0.90;;
4144;SDS011;2086;51.050;6.982;2022-08-01T01:07:30;0.83;;;0.83;;
4144;SDS011;2086;51.050;6.982;2022-08-01T01:09:59;1.23;;;1.13;;
4144;SDS011;2086;51.050;6.982;2022-08-01T01:12:34;1.30;;;0.80;;
4144;SDS011;2086;51.050;6.982;2022-08-01T01:15:06;0.90;;;0.90;;
4144;SDS011;2086;51.050;6.982;2022-08-01T01:17:39;1.90;;;1.80;;
4144;SDS011;2086;51.050;6.982;2022-08-01T01:20:06;2.50;;;1.77;;
4144;SDS011;2086;51.050;6.982;2022-08-01T01:22:36;2.77;;;1.60;;
4144;SDS011;2086;51.050;6.982;2022-08-01T01:27:38;1.20;;;1.20;;
4144;SDS011;2086;51.050;6.982;2022-08-01T01:30:04;2.13;;;1.73;;
4144;SDS011;2086;51.050;6.982;2022-08-01T01:32:43;3.17;;;1.20;;
4144;SDS011;2086;51.050;6.982;2022-08-01T01:35:15;1.60;;;1.50;;
4144;SDS011;2086;51.050;6.982;2022-08-01T01:37:42;3.77;;;1.90;;
4144;SDS011;2086;51.050;6.982;2022-08-01T01:40:09;1.70;;;1.60;;
4144;SDS011;2086;51.050;6.982;2022-08-01T01:42:35;1.80;;;1.70;;
4144;SDS011;2086;51.050;6.982;2022-08-01T01:45:00;3.60;;;2.50;;
4144;SDS011;2086;51.050;6.982;2022-08-01T01:47:27;1.57;;;1.47;;
4144;SDS011;2086;51.050;6.982;2022-08-01T01:49:52;1.50;;;1.40;;
4144;SDS011;2086;51.050;6.982;2022-08-01T01:52:18;2.80;;;2.40;;
4144;SDS011;2086;51.050;6.982;2022-08-01T01:54:48;1.53;;;1.40;;
4144;SDS011;2086;51.050;6.982;2022-08-01T01:57:14;1.80;;;1.47;;
4144;SDS011;2086;51.050;6.982;2022-08-01T01:59:40;2.50;;;1.63;;
4144;SDS011;2086;51.050;6.982;2022-08-01T02:02:06;1.60;;;1.50;;
4144;SDS011;2086;51.050;6.982;2022-08-01T02:04:32;1.67;;;1.57;;
4144;SDS011;2086;51.050;6.982;2022-08-01T02:07:00;3.80;;;1.60;;
4144;SDS011;2086;51.050;6.982;2022-08-01T02:09:26;2.07;;;1.93;;
4144;SDS011;2086;51.050;6.982;2022-08-01T02:11:52;1.73;;;1.20;;
4144;SDS011;2086;51.050;6.982;2022-08-01T02:14:18;2.90;;;1.70;;
4144;SDS011;2086;51.050;6.982;2022-08-01T02:16:45;3.23;;;1.43;;
4144;SDS011;2086;51.050;6.982;2022-08-01T02:19:11;1.30;;;1.20;;
4144;SDS011;2086;51.050;6.982;2022-08-01T02:21:38;1.60;;;1.50;;
4144;SDS011;2086;51.050;6.982;2022-08-01T02:24:30;1.00;;;1.00;;
4144;SDS011;2086;51.050;6.982;2022-08-01T02:26:52;1.43;;;1.10;;
4144;SDS011;2086;51.050;6.982;2022-08-01T02:29:27;1.33;;;1.00;;
4144;SDS011;2086;51.050;6.982;2022-08-01T02:31:55;1.00;;;1.00;;
4144;SDS011;2086;51.050;6.982;2022-08-01T02:34:21;1.63;;;1.00;;
4144;SDS011;2086;51.050;6.982;2022-08-01T02:36:47;1.53;;;1.20;;
4144;SDS011;2086;51.050;6.982;2022-08-01T02:39:13;0.90;;;0.90;;
4144;SDS011;2086;51.050;6.982;2022-08-01T02:41:41;1.13;;;1.13;;
4144;SDS011;2086;51.050;6.982;2022-08-01T02:44:07;1.47;;;1.37;;
4144;SDS011;2086;51.050;6.982;2022-08-01T02:46:36;1.83;;;1.70;;
4144;SDS011;2086;51.050;6.982;2022-08-01T02:49:02;1.60;;;1.50;;
4144;SDS011;2086;51.050;6.982;2022-08-01T02:51:28;2.00;;;1.90;;
4144;SDS011;2086;51.050;6.982;2022-08-01T02:53:54;1.00;;;1.00;;
4144;SDS011;2086;51.050;6.982;2022-08-01T02:56:21;1.90;;;1.80;;
4144;SDS011;2086;51.050;6.982;2022-08-01T02:58:47;4.87;;;3.17;;
4144;SDS011;2086;51.050;6.982;2022-08-01T03:01:14;1.33;;;1.23;;
4144;SDS011;2086;51.050;6.982;2022-08-01T03:03:39;1.43;;;1.20;;
4144;SDS011;2086;51.050;6.982;2022-08-01T03:06:05;1.70;;;1.60;;
4144;SDS011;2086;51.050;6.982;2022-08-01T03:08:30;1.83;;;1.73;;
4144;SDS011;2086;51.050;6.982;2022-08-01T03:10:56;1.90;;;1.77;;
4144;SDS011;2086;51.050;6.982;2022-08-01T03:13:23;1.80;;;1.70;;
4144;SDS011;2086;51.050;6.982;2022-08-01T03:15:50;1.93;;;1.83;;
4144;SDS011;2086;51.050;6.982;2022-08-01T03:18:16;1.93;;;1.37;;
4144;SDS011;2086;51.050;6.982;2022-08-01T03:20:42;1.43;;;1.33;;
4144;SDS011;2086;51.050;6.982;2022-08-01T03:23:08;1.77;;;1.67;;
4144;SDS011;2086;51.050;6.982;2022-08-01T03:25:34;1.83;;;1.27;;
4144;SDS011;2086;51.050;6.982;2022-08-01T03:28:01;2.27;;;2.07;;
4144;SDS011;2086;51.050;6.982;2022-08-01T03:30:28;1.93;;;1.83;;
4144;SDS011;2086;51.050;6.982;2022-08-01T03:32:54;2.40;;;1.30;;
4144;SDS011;2086;51.050;6.982;2022-08-01T03:35:20;7.40;;;3.03;;
4144;SDS011;2086;51.050;6.982;2022-08-01T03:37:47;3.13;;;1.87;;
4144;SDS011;2086;51.050;6.982;2022-08-01T03:40:31;1.83;;;1.67;;
4144;SDS011;2086;51.050;6.982;2022-08-01T03:42:59;2.77;;;2.50;;
4144;SDS011;2086;51.050;6.982;2022-08-01T03:45:29;2.07;;;1.97;;
4144;SDS011;2086;51.050;6.982;2022-08-01T03:47:56;2.40;;;2.30;;
4144;SDS011;2086;51.050;6.982;2022-08-01T03:50:24;2.80;;;2.17;;
4144;SDS011;2086;51.050;6.982;2022-08-01T03:52:50;2.30;;;2.10;;
4144;SDS011;2086;51.050;6.982;2022-08-01T03:55:16;2.77;;;2.60;;
4144;SDS011;2086;51.050;6.982;2022-08-01T03:57:42;2.57;;;2.47;;
4144;SDS011;2086;51.050;6.982;2022-08-01T04:00:07;4.53;;;2.57;;
4144;SDS011;2086;51.050;6.982;2022-08-01T04:02:33;2.40;;;2.20;;
4144;SDS011;2086;51.050;6.982;2022-08-01T04:04:59;3.57;;;3.20;;
4144;SDS011;2086;51.050;6.982;2022-08-01T04:07:26;4.17;;;2.27;;
4144;SDS011;2086;51.050;6.982;2022-08-01T04:09:51;2.00;;;1.90;;
4144;SDS011;2086;51.050;6.982;2022-08-01T04:12:17;7.03;;;2.57;;
4144;SDS011;2086;51.050;6.982;2022-08-01T04:14:42;2.20;;;2.10;;
4144;SDS011;2086;51.050;6.982;2022-08-01T04:17:08;2.40;;;2.30;;
4144;SDS011;2086;51.050;6.982;2022-08-01T04:19:33;10.80;;;3.60;;
4144;SDS011;2086;51.050;6.982;2022-08-01T04:21:58;6.80;;;4.30;;
4144;SDS011;2086;51.050;6.982;2022-08-01T04:24:24;4.37;;;3.20;;
4144;SDS011;2086;51.050;6.982;2022-08-01T04:26:50;5.50;;;4.67;;
4144;SDS011;2086;51.050;6.982;2022-08-01T04:29:17;4.50;;;3.70;;
4144;SDS011;2086;51.050;6.982;2022-08-01T04:31:45;5.73;;;3.83;;
4144;SDS011;2086;51.050;6.982;2022-08-01T04:34:11;5.03;;;4.07;;
4144;SDS011;2086;51.050;6.982;2022-08-01T04:36:38;6.77;;;4.23;;
4144;SDS011;2086;51.050;6.982;2022-08-01T04:39:06;4.37;;;3.97;;
4144;SDS011;2086;51.050;6.982;2022-08-01T04:41:33;5.33;;;3.77;;
4144;SDS011;2086;51.050;6.982;2022-08-01T04:44:00;18.73;;;4.77;;
4144;SDS011;2086;51.050;6.982;2022-08-01T04:46:27;5.40;;;3.67;;
4144;SDS011;2086;51.050;6.982;2022-08-01T04:48:53;4.67;;;4.03;;
4144;SDS011;2086;51.050;6.982;2022-08-01T04:51:19;3.73;;;3.13;;
4144;SDS011;2086;51.050;6.982;2022-08-01T04:53:47;4.10;;;3.80;;
4144;SDS011;2086;51.050;6.982;2022-08-01T04:56:12;9.47;;;4.80;;
4144;SDS011;2086;51.050;6.982;2022-08-01T04:58:38;7.77;;;4.30;;
4144;SDS011;2086;51.050;6.982;2022-08-01T05:01:04;3.70;;;3.40;;
4144;SDS011;2086;51.050;6.982;2022-08-01T05:03:29;5.37;;;3.83;;
4144;SDS011;2086;51.050;6.982;2022-08-01T05:05:55;3.93;;;3.50;;
4144;SDS011;2086;51.050;6.982;2022-08-01T05:08:20;10.80;;;4.50;;
4144;SDS011;2086;51.050;6.982;2022-08-01T05:10:45;5.30;;;4.33;;
4144;SDS011;2086;51.050;6.982;2022-08-01T05:13:10;5.50;;;4.67;;
4144;SDS011;2086;51.050;6.982;2022-08-01T05:15:36;6.57;;;5.07;;
4144;SDS011;2086;51.050;6.982;2022-08-01T05:18:04;8.73;;;4.47;;
4144;SDS011;2086;51.050;6.982;2022-08-01T05:20:29;3.67;;;3.37;;
4144;SDS011;2086;51.050;6.982;2022-08-01T05:22:54;4.63;;;4.23;;
4144;SDS011;2086;51.050;6.982;2022-08-01T05:25:19;14.53;;;3.70;;
4144;SDS011;2086;51.050;6.982;2022-08-01T05:27:45;4.23;;;3.90;;
4144;SDS011;2086;51.050;6.982;2022-08-01T05:30:10;4.00;;;3.70;;
4144;SDS011;2086;51.050;6.982;2022-08-01T05:32:35;9.57;;;4.67;;
4144;SDS011;2086;51.050;6.982;2022-08-01T05:35:01;5.63;;;4.47;;
4144;SDS011;2086;51.050;6.982;2022-08-01T05:37:26;4.70;;;3.73;;
4144;SDS011;2086;51.050;6.982;2022-08-01T05:39:51;4.63;;;4.20;;
4144;SDS011;2086;51.050;6.982;2022-08-01T05:42:16;6.00;;;4.57;;
4144;SDS011;2086;51.050;6.982;2022-08-01T05:44:42;8.90;;;4.83;;
4144;SDS011;2086;51.050;6.982;2022-08-01T05:47:07;3.70;;;3.47;;
4144;SDS011;2086;51.050;6.982;2022-08-01T05:49:32;6.07;;;3.90;;
4144;SDS011;2086;51.050;6.982;2022-08-01T05:51:57;5.63;;;4.43;;
4144;SDS011;2086;51.050;6.982;2022-08-01T05:54:23;6.00;;;4.80;;
4144;SDS011;2086;51.050;6.982;2022-08-01T05:56:48;8.03;;;4.90;;
4144;SDS011;2086;51.050;6.982;2022-08-01T05:59:13;10.33;;;4.43;;
4144;SDS011;2086;51.050;6.982;2022-08-01T06:01:38;5.97;;;5.33;;
4144;SDS011;2086;51.050;6.982;2022-08-01T06:04:04;6.33;;;4.97;;
4144;SDS011;2086;51.050;6.982;2022-08-01T06:06:29;7.23;;;4.30;;
4144;SDS011;2086;51.050;6.982;2022-08-01T06:08:54;4.03;;;3.30;;
4144;SDS011;2086;51.050;6.982;2022-08-01T06:11:19;3.70;;;3.40;;
4144;SDS011;2086;51.050;6.982;2022-08-01T06:13:45;4.50;;;4.17;;
4144;SDS011;2086;51.050;6.982;2022-08-01T06:16:10;7.50;;;4.53;;
4144;SDS011;2086;51.050;6.982;2022-08-01T06:18:35;4.77;;;4.27;;
4144;SDS011;2086;51.050;6.982;2022-08-01T06:21:01;5.30;;;4.80;;
4144;SDS011;2086;51.050;6.982;2022-08-01T06:23:26;4.20;;;3.80;;
4144;SDS011;2086;51.050;6.982;2022-08-01T06:25:52;4.37;;;4.00;;
4144;SDS011;2086;51.050;6.982;2022-08-01T06:28:18;4.93;;;4.40;;
4144;SDS011;2086;51.050;6.982;2022-08-01T06:30:43;4.70;;;4.30;;
4144;SDS011;2086;51.050;6.982;2022-08-01T06:33:08;10.40;;;5.23;;
4144;SDS011;2086;51.050;6.982;2022-08-01T06:35:33;6.33;;;5.67;;
4144;SDS011;2086;51.050;6.982;2022-08-01T06:37:59;7.27;;;4.90;;
4144;SDS011;2086;51.050;6.982;2022-08-01T06:40:24;5.30;;;4.37;;
4144;SDS011;2086;51.050;6.982;2022-08-01T06:42:49;5.43;;;5.03;;
4144;SDS011;2086;51.050;6.982;2022-08-01T06:45:14;7.27;;;5.60;;
4144;SDS011;2086;51.050;6.982;2022-08-01T06:47:41;6.67;;;5.00;;
4144;SDS011;2086;51.050;6.982;2022-08-01T06:50:07;4.80;;;4.50;;
4144;SDS011;2086;51.050;6.982;2022-08-01T06:52:32;5.27;;;3.80;;
4144;SDS011;2086;51.050;6.982;2022-08-01T06:54:58;10.23;;;5.43;;
4144;SDS011;2086;51.050;6.982;2022-08-01T06:57:23;4.77;;;4.30;;
4144;SDS011;2086;51.050;6.982;2022-08-01T06:59:48;5.93;;;4.03;;
4144;SDS011;2086;51.050;6.982;2022-08-01T07:02:13;4.10;;;3.80;;
4144;SDS011;2086;51.050;6.982;2022-08-01T07:04:39;8.13;;;5.20;;
4144;SDS011;2086;51.050;6.982;2022-08-01T07:07:04;5.57;;;5.00;;
4144;SDS011;2086;51.050;6.982;2022-08-01T07:09:29;11.47;;;4.57;;
4144;SDS011;2086;51.050;6.982;2022-08-01T07:11:55;4.63;;;4.23;;
4144;SDS011;2086;51.050;6.982;2022-08-01T07:14:20;4.83;;;4.43;;
4144;SDS011;2086;51.050;6.982;2022-08-01T07:16:46;3.73;;;3.53;;
4144;SDS011;2086;51.050;6.982;2022-08-01T07:19:12;4.57;;;4.13;;
4144;SDS011;2086;51.050;6.982;2022-08-01T07:21:37;6.07;;;5.03;;
4144;SDS011;2086;51.050;6.982;2022-08-01T07:24:03;8.17;;;5.60;;
4144;SDS011;2086;51.050;6.982;2022-08-01T07:26:29;4.57;;;4.13;;
4144;SDS011;2086;51.050;6.982;2022-08-01T07:28:54;4.43;;;4.07;;
4144;SDS011;2086;51.050;6.982;2022-08-01T07:31:20;4.23;;;4.03;;
4144;SDS011;2086;51.050;6.982;2022-08-01T07:33:45;5.60;;;4.53;;
4144;SDS011;2086;51.050;6.982;2022-08-01T07:36:10;5.60;;;4.70;;
4144;SDS011;2086;51.050;6.982;2022-08-01T07:38:35;5.13;;;4.73;;
4144;SDS011;2086;51.050;6.982;2022-08-01T07:41:01;7.83;;;4.80;;
4144;SDS011;2086;51.050;6.982;2022-08-01T07:43:26;3.63;;;3.30;;
4144;SDS011;2086;51.050;6.982;2022-08-01T07:45:51;5.50;;;5.10;;
4144;SDS011;2086;51.050;6.982;2022-08-01T07:48:16;4.77;;;3.97;;
4144;SDS011;2086;51.050;6.982;2022-08-01T07:50:42;3.67;;;3.40;;
4144;SDS011;2086;51.050;6.982;2022-08-01T07:53:07;2.90;;;2.70;;
4144;SDS011;2086;51.050;6.982;2022-08-01T07:55:35;2.90;;;2.77;;
4144;SDS011;2086;51.050;6.982;2022-08-01T07:58:00;3.77;;;3.53;;
4144;SDS011;2086;51.050;6.982;2022-08-01T08:00:25;2.30;;;2.10;;
4144;SDS011;2086;51.050;6.982;2022-08-01T08:02:52;3.10;;;2.90;;
4144;SDS011;2086;51.050;6.982;2022-08-01T08:05:18;2.50;;;2.40;;
4144;SDS011;2086;51.050;6.982;2022-08-01T08:07:44;3.10;;;3.00;;
4144;SDS011;2086;51.050;6.982;2022-08-01T08:10:09;2.80;;;2.70;;
4144;SDS011;2086;51.050;6.982;2022-08-01T08:12:35;2.23;;;2.03;;
4144;SDS011;2086;51.050;6.982;2022-08-01T08:15:00;1.77;;;1.67;;
4144;SDS011;2086;51.050;6.982;2022-08-01T08:17:26;1.67;;;1.50;;
4144;SDS011;2086;51.050;6.982;2022-08-01T08:19:52;1.27;;;1.27;;
4144;SDS011;2086;51.050;6.982;2022-08-01T08:22:17;2.30;;;1.87;;
4144;SDS011;2086;51.050;6.982;2022-08-01T08:24:43;2.10;;;2.00;;
4144;SDS011;2086;51.050;6.982;2022-08-01T08:27:08;2.60;;;2.50;;
4144;SDS011;2086;51.050;6.982;2022-08-01T08:29:33;2.00;;;1.80;;
4144;SDS011;2086;51.050;6.982;2022-08-01T08:31:59;1.80;;;1.70;;
4144;SDS011;2086;51.050;6.982;2022-08-01T08:34:25;1.53;;;1.43;;
4144;SDS011;2086;51.050;6.982;2022-08-01T08:36:51;2.83;;;1.70;;
4144;SDS011;2086;51.050;6.982;2022-08-01T08:39:17;5.70;;;1.80;;
4144;SDS011;2086;51.050;6.982;2022-08-01T08:41:42;1.60;;;1.50;;
4144;SDS011;2086;51.050;6.982;2022-08-01T08:44:08;2.00;;;1.90;;
4144;SDS011;2086;51.050;6.982;2022-08-01T08:46:33;1.37;;;1.30;;
4144;SDS011;2086;51.050;6.982;2022-08-01T08:49:00;1.57;;;1.47;;
4144;SDS011;2086;51.050;6.982;2022-08-01T08:51:26;1.10;;;1.10;;
4144;SDS011;2086;51.050;6.982;2022-08-01T08:53:52;1.43;;;1.37;;
4144;SDS011;2086;51.050;6.982;2022-08-01T08:56:19;1.77;;;1.67;;
4144;SDS011;2086;51.050;6.982;2022-08-01T08:58:44;2.00;;;1.90;;
4144;SDS011;2086;51.050;6.982;2022-08-01T09:01:10;2.10;;;2.00;;
4144;SDS011;2086;51.050;6.982;2022-08-01T09:03:35;2.00;;;1.87;;
4144;SDS011;2086;51.050;6.982;2022-08-01T09:06:00;1.97;;;1.77;;
4144;SDS011;2086;51.050;6.982;2022-08-01T09:08:25;1.30;;;1.20;;
4144;SDS011;2086;51.050;6.982;2022-08-01T09:10:51;1.73;;;1.63;;
4144;SDS011;2086;51.050;6.982;2022-08-01T09:13:16;1.60;;;1.60;;
4144;SDS011;2086;51.050;6.982;2022-08-01T09:18:07;1.03;;;1.00;;
4144;SDS011;2086;51.050;6.982;2022-08-01T09:20:32;1.20;;;1.13;;
4144;SDS011;2086;51.050;6.982;2022-08-01T09:23:01;1.37;;;1.27;;
4144;SDS011;2086;51.050;6.982;2022-08-01T09:25:26;1.50;;;1.40;;
4144;SDS011;2086;51.050;6.982;2022-08-01T09:28:04;1.60;;;1.40;;
4144;SDS011;2086;51.050;6.982;2022-08-01T09:30:36;1.67;;;1.53;;
4144;SDS011;2086;51.050;6.982;2022-08-01T09:33:02;5.63;;;1.47;;
4144;SDS011;2086;51.050;6.982;2022-08-01T09:35:28;0.90;;;0.90;;
4144;SDS011;2086;51.050;6.982;2022-08-01T09:40:46;1.83;;;1.73;;
4144;SDS011;2086;51.050;6.982;2022-08-01T09:43:11;1.30;;;1.27;;
4144;SDS011;2086;51.050;6.982;2022-08-01T09:45:37;2.83;;;1.50;;
4144;SDS011;2086;51.050;6.982;2022-08-01T09:48:06;1.20;;;1.10;;
4144;SDS011;2086;51.050;6.982;2022-08-01T09:50:38;1.17;;;1.17;;
4144;SDS011;2086;51.050;6.982;2022-08-01T09:53:03;1.50;;;1.40;;
4144;SDS011;2086;51.050;6.982;2022-08-01T09:55:29;2.17;;;2.07;;
4144;SDS011;2086;51.050;6.982;2022-08-01T09:57:54;1.10;;;1.10;;
4144;SDS011;2086;51.050;6.982;2022-08-01T10:00:20;1.60;;;1.50;;
4144;SDS011;2086;51.050;6.982;2022-08-01T10:02:45;1.97;;;1.33;;
4144;SDS011;2086;51.050;6.982;2022-08-01T10:05:10;2.40;;;1.87;;
4144;SDS011;2086;51.050;6.982;2022-08-01T10:07:36;3.13;;;1.00;;
4144;SDS011;2086;51.050;6.982;2022-08-01T10:10:19;1.30;;;1.30;;
4144;SDS011;2086;51.050;6.982;2022-08-01T10:12:44;1.77;;;1.47;;
4144;SDS011;2086;51.050;6.982;2022-08-01T10:15:10;1.30;;;1.23;;
4144;SDS011;2086;51.050;6.982;2022-08-01T10:17:38;1.50;;;1.40;;
4144;SDS011;2086;51.050;6.982;2022-08-01T10:20:03;1.63;;;1.53;;
4144;SDS011;2086;51.050;6.982;2022-08-01T10:22:30;1.73;;;1.63;;
4144;SDS011;2086;51.050;6.982;2022-08-01T10:24:55;1.20;;;1.20;;
4144;SDS011;2086;51.050;6.982;2022-08-01T10:27:21;1.53;;;1.43;;
4144;SDS011;2086;51.050;6.982;2022-08-01T10:30:00;1.33;;;1.27;;
4144;SDS011;2086;51.050;6.982;2022-08-01T10:32:29;1.00;;;0.80;;
4144;SDS011;2086;51.050;6.982;2022-08-01T10:34:54;1.33;;;1.33;;
4144;SDS011;2086;51.050;6.982;2022-08-01T10:37:19;1.30;;;1.27;;
4144;SDS011;2086;51.050;6.982;2022-08-01T10:39:45;1.13;;;1.03;;
4144;SDS011;2086;51.050;6.982;2022-08-01T10:42:11;1.07;;;1.03;;
4144;SDS011;2086;51.050;6.982;2022-08-01T10:44:36;2.33;;;1.00;;
4144;SDS011;2086;51.050;6.982;2022-08-01T10:47:05;1.00;;;1.00;;
4144;SDS011;2086;51.050;6.982;2022-08-01T10:49:31;1.00;;;1.00;;
4144;SDS011;2086;51.050;6.982;2022-08-01T10:51:59;1.00;;;1.00;;
4144;SDS011;2086;51.050;6.982;2022-08-01T10:54:25;1.30;;;1.30;;
4144;SDS011;2086;51.050;6.982;2022-08-01T10:56:51;1.10;;;1.00;;
4144;SDS011;2086;51.050;6.982;2022-08-01T10:59:20;1.23;;;0.80;;
4144;SDS011;2086;51.050;6.982;2022-08-01T11:01:55;1.23;;;0.73;;
4144;SDS011;2086;51.050;6.982;2022-08-01T11:04:22;0.83;;;0.83;;
4144;SDS011;2086;51.050;6.982;2022-08-01T11:09:47;0.80;;;0.80;;
4144;SDS011;2086;51.050;6.982;2022-08-01T11:12:16;0.90;;;0.90;;
4144;SDS011;2086;51.050;6.982;2022-08-01T11:20:12;1.60;;;1.30;;
4144;SDS011;2086;51.050;6.982;2022-08-01T11:25:21;1.20;;;1.10;;
4144;SDS011;2086;51.050;6.982;2022-08-01T11:27:47;1.47;;;1.37;;
4144;SDS011;2086;51.050;6.982;2022-08-01T11:32:47;1.00;;;1.00;;
4144;SDS011;2086;51.050;6.982;2022-08-01T11:35:13;0.90;;;0.90;;
4144;SDS011;2086;51.050;6.982;2022-08-01T11:37:38;0.93;;;0.93;;
4144;SDS011;2086;51.050;6.982;2022-08-01T11:43:30;0.90;;;0.90;;
4144;SDS011;2086;51.050;6.982;2022-08-01T11:45:49;1.10;;;1.10;;
4144;SDS011;2086;51.050;6.982;2022-08-01T11:48:22;0.63;;;0.63;;
4144;SDS011;2086;51.050;6.982;2022-08-01T11:50:47;0.73;;;0.73;;
4144;SDS011;2086;51.050;6.982;2022-08-01T11:53:14;3.63;;;0.70;;
4144;SDS011;2086;51.050;6.982;2022-08-01T11:55:43;0.73;;;0.73;;
4144;SDS011;2086;51.050;6.982;2022-08-01T11:58:10;0.68;;;0.68;;
4144;SDS011;2086;51.050;6.982;2022-08-01T12:00:35;0.47;;;0.47;;
4144;SDS011;2086;51.050;6.982;2022-08-01T12:03:02;1.63;;;1.10;;
4144;SDS011;2086;51.050;6.982;2022-08-01T12:05:29;0.70;;;0.70;;
4144;SDS011;2086;51.050;6.982;2022-08-01T12:07:55;0.70;;;0.70;;
4144;SDS011;2086;51.050;6.982;2022-08-01T12:10:22;1.23;;;1.00;;
4144;SDS011;2086;51.050;6.982;2022-08-01T12:12:55;0.70;;;0.70;;
4144;SDS011;2086;51.050;6.982;2022-08-01T12:15:24;0.50;;;0.43;;
4144;SDS011;2086;51.050;6.982;2022-08-01T12:17:50;0.60;;;0.60;;
4144;SDS011;2086;51.050;6.982;2022-08-01T12:20:18;2.00;;;0.90;;
4144;SDS011;2086;51.050;6.982;2022-08-01T12:22:44;0.60;;;0.60;;
4144;SDS011;2086;51.050;6.982;2022-08-01T12:25:10;0.40;;;0.40;;
4144;SDS011;2086;51.050;6.982;2022-08-01T12:27:37;3.27;;;0.80;;
4144;SDS011;2086;51.050;6.982;2022-08-01T12:30:06;0.50;;;0.50;;
4144;SDS011;2086;51.050;6.982;2022-08-01T12:32:33;0.50;;;0.50;;
4144;SDS011;2086;51.050;6.982;2022-08-01T12:35:07;2.20;;;0.70;;
4144;SDS011;2086;51.050;6.982;2022-08-01T12:37:40;0.60;;;0.60;;
4144;SDS011;2086;51.050;6.982;2022-08-01T12:40:18;0.63;;;0.60;;
4144;SDS011;2086;51.050;6.982;2022-08-01T12:42:45;0.60;;;0.60;;
4144;SDS011;2086;51.050;6.982;2022-08-01T12:45:12;0.40;;;0.40;;
4144;SDS011;2086;51.050;6.982;2022-08-01T12:47:37;0.60;;;0.60;;
4144;SDS011;2086;51.050;6.982;2022-08-01T12:50:06;0.53;;;0.53;;
4144;SDS011;2086;51.050;6.982;2022-08-01T12:52:32;0.47;;;0.40;;
4144;SDS011;2086;51.050;6.982;2022-08-01T12:55:05;0.50;;;0.50;;
4144;SDS011;2086;51.050;6.982;2022-08-01T12:57:31;0.60;;;0.50;;
4144;SDS011;2086;51.050;6.982;2022-08-01T13:00:10;0.40;;;0.40;;
4144;SDS011;2086;51.050;6.982;2022-08-01T13:02:38;0.43;;;0.40;;
4144;SDS011;2086;51.050;6.982;2022-08-01T13:05:04;3.23;;;0.40;;
4144;SDS011;2086;51.050;6.982;2022-08-01T13:10:01;0.40;;;0.40;;
4144;SDS011;2086;51.050;6.982;2022-08-01T13:12:27;0.40;;;0.40;;
4144;SDS011;2086;51.050;6.982;2022-08-01T13:14:52;0.73;;;0.50;;
4144;SDS011;2086;51.050;6.982;2022-08-01T13:17:34;0.60;;;0.50;;
4144;SDS011;2086;51.050;6.982;2022-08-01T13:20:04;0.40;;;0.40;;
4144;SDS011;2086;51.050;6.982;2022-08-01T13:22:36;0.50;;;0.47;;
4144;SDS011;2086;51.050;6.982;2022-08-01T13:25:14;0.50;;;0.50;;
4144;SDS011;2086;51.050;6.982;2022-08-01T13:27:40;0.47;;;0.43;;
4144;SDS011;2086;51.050;6.982;2022-08-01T13:32:37;0.50;;;0.50;;
4144;SDS011;2086;51.050;6.982;2022-08-01T13:35:03;0.50;;;0.50;;
4144;SDS011;2086;51.050;6.982;2022-08-01T13:37:29;0.60;;;0.60;;
4144;SDS011;2086;51.050;6.982;2022-08-01T13:39:54;0.40;;;0.40;;
4144;SDS011;2086;51.050;6.982;2022-08-01T13:42:19;0.50;;;0.50;;
4144;SDS011;2086;51.050;6.982;2022-08-01T13:44:44;0.40;;;0.40;;
4144;SDS011;2086;51.050;6.982;2022-08-01T13:47:10;0.67;;;0.50;;
4144;SDS011;2086;51.050;6.982;2022-08-01T13:49:35;0.50;;;0.50;;
4144;SDS011;2086;51.050;6.982;2022-08-01T13:52:01;0.90;;;0.60;;
4144;SDS011;2086;51.050;6.982;2022-08-01T13:54:26;0.70;;;0.70;;
4144;SDS011;2086;51.050;6.982;2022-08-01T13:56:52;0.50;;;0.47;;
4144;SDS011;2086;51.050;6.982;2022-08-01T13:59:17;0.53;;;0.47;;
4144;SDS011;2086;51.050;6.982;2022-08-01T14:01:42;0.50;;;0.40;;
4144;SDS011;2086;51.050;6.982;2022-08-01T14:04:08;0.50;;;0.40;;
4144;SDS011;2086;51.050;6.982;2022-08-01T14:06:33;0.40;;;0.40;;
4144;SDS011;2086;51.050;6.982;2022-08-01T14:08:59;0.50;;;0.40;;
4144;SDS011;2086;51.050;6.982;2022-08-01T14:11:25;0.60;;;0.60;;
4144;SDS011;2086;51.050;6.982;2022-08-01T14:13:50;0.77;;;0.50;;
4144;SDS011;2086;51.050;6.982;2022-08-01T14:16:16;0.50;;;0.40;;
4144;SDS011;2086;51.050;6.982;2022-08-01T14:18:41;0.50;;;0.50;;
4144;SDS011;2086;51.050;6.982;2022-08-01T14:21:06;1.63;;;0.40;;
4144;SDS011;2086;51.050;6.982;2022-08-01T14:23:32;0.57;;;0.47;;
4144;SDS011;2086;51.050;6.982;2022-08-01T14:25:57;0.77;;;0.60;;
4144;SDS011;2086;51.050;6.982;2022-08-01T14:28:22;0.50;;;0.50;;
4144;SDS011;2086;51.050;6.982;2022-08-01T14:30:49;0.57;;;0.57;;
4144;SDS011;2086;51.050;6.982;2022-08-01T14:33:14;0.90;;;0.60;;
4144;SDS011;2086;51.050;6.982;2022-08-01T14:35:40;0.70;;;0.70;;
4144;SDS011;2086;51.050;6.982;2022-08-01T14:38:05;0.70;;;0.70;;
4144;SDS011;2086;51.050;6.982;2022-08-01T14:40:31;0.57;;;0.50;;
4144;SDS011;2086;51.050;6.982;2022-08-01T14:42:56;0.60;;;0.60;;
4144;SDS011;2086;51.050;6.982;2022-08-01T14:45:21;0.60;;;0.60;;
4144;SDS011;2086;51.050;6.982;2022-08-01T14:47:47;0.50;;;0.50;;
4144;SDS011;2086;51.050;6.982;2022-08-01T14:50:12;0.50;;;0.50;;
4144;SDS011;2086;51.050;6.982;2022-08-01T14:52:38;0.57;;;0.57;;
4144;SDS011;2086;51.050;6.982;2022-08-01T14:55:05;0.80;;;0.80;;
4144;SDS011;2086;51.050;6.982;2022-08-01T14:57:30;1.27;;;0.50;;
4144;SDS011;2086;51.050;6.982;2022-08-01T14:59:56;0.60;;;0.50;;
4144;SDS011;2086;51.050;6.982;2022-08-01T15:02:21;0.50;;;0.50;;
4144;SDS011;2086;51.050;6.982;2022-08-01T15:04:47;0.50;;;0.50;;
4144;SDS011;2086;51.050;6.982;2022-08-01T15:07:12;0.53;;;0.50;;
4144;SDS011;2086;51.050;6.982;2022-08-01T15:09:38;0.60;;;0.60;;
4144;SDS011;2086;51.050;6.982;2022-08-01T15:12:03;0.50;;;0.47;;
4144;SDS011;2086;51.050;6.982;2022-08-01T15:14:28;0.57;;;0.57;;
4144;SDS011;2086;51.050;6.982;2022-08-01T15:17:12;0.60;;;0.53;;
4144;SDS011;2086;51.050;6.982;2022-08-01T15:19:37;1.00;;;0.60;;
4144;SDS011;2086;51.050;6.982;2022-08-01T15:22:03;1.50;;;0.80;;
4144;SDS011;2086;51.050;6.982;2022-08-01T15:24:28;1.00;;;1.00;;
4144;SDS011;2086;51.050;6.982;2022-08-01T15:26:54;0.70;;;0.70;;
4144;SDS011;2086;51.050;6.982;2022-08-01T15:29:19;0.77;;;0.77;;
4144;SDS011;2086;51.050;6.982;2022-08-01T15:31:44;0.97;;;0.70;;
4144;SDS011;2086;51.050;6.982;2022-08-01T15:34:10;0.83;;;0.83;;
4144;SDS011;2086;51.050;6.982;2022-08-01T15:36:35;0.83;;;0.80;;
4144;SDS011;2086;51.050;6.982;2022-08-01T15:39:01;0.77;;;0.77;;
4144;SDS011;2086;51.050;6.982;2022-08-01T15:41:26;0.60;;;0.60;;